Time;durP1;ratioP1;P1;durP2;ratioP2;P2;SDS_P1;SDS_P2;PMS_P1;PMS_P2;Temp;Humidity;BMP_temperature;BMP_pressure;BME280_temperature;BME280_humidity;BME280_pressure;Samples;Min_cycle;Max_cycle;Signal;HPM_P1;HPM_P2
2021/11/11 00:01:08;;;;;;;7.82;3.47;;;;;;;1.00;73.76;99693.66;5051311;28;20478;-62
2021/11/11 00:03:34;;;;;;;6.43;3.25;;;;;;;1.04;73.34;99662.78;5051450;28;20045;-63
2021/11/11 00:06:00;;;;;;;5.10;3.45;;;;;;;1.11;72.72;99659.31;5051273;28;20410;-62
2021/11/11 00:08:26;;;;;;;6.10;3.80;;;;;;;1.15;72.85;99672.88;5051573;28;20481;-64
2021/11/11 00:10:52;;;;;;;7.93;3.60;;;;;;;1.18;72.43;99669.06;5051111;28;20471;-63
2021/11/11 00:13:21;;;;;;;9.43;3.75;;;;;;;1.23;72.19;99674.63;5051431;28;20107;-64
2021/11/11 00:15:48;;;;;;;8.82;3.22;;;;;;;1.11;72.28;99672.38;5051266;28;20072;-63
2021/11/11 00:18:15;;;;;;;6.60;3.40;;;;;;;1.17;71.91;99664.84;5051415;28;20135;-63
2021/11/11 00:20:41;;;;;;;6.05;3.85;;;;;;;1.18;71.91;99658.63;5050897;28;20094;-62
2021/11/11 00:23:07;;;;;;;5.07;3.17;;;;;;;1.14;71.62;99643.31;5049720;28;20060;-61
2021/11/11 00:25:33;;;;;;;6.68;3.03;;;;;;;1.22;71.36;99639.06;5050859;28;20406;-62
2021/11/11 00:27:59;;;;;;;5.35;3.28;;;;;;;1.10;71.89;99649.88;5050641;28;20110;-63
2021/11/11 00:30:26;;;;;;;6.53;3.70;;;;;;;1.20;71.55;99633.97;5049669;28;20049;-62
2021/11/11 00:32:52;;;;;;;6.43;3.40;;;;;;;1.24;71.24;99637.09;5051261;28;20037;-62
2021/11/11 00:35:23;;;;;;;9.38;3.65;;;;;;;1.21;71.26;99635.63;5051010;28;20421;-65
2021/11/11 00:37:51;;;;;;;7.82;4.22;;;;;;;1.20;71.19;99628.75;5049911;28;20049;-63
2021/11/11 00:40:17;;;;;;;6.47;3.85;;;;;;;1.19;70.75;99623.72;5050731;28;20049;-61
2021/11/11 00:42:43;;;;;;;6.53;3.78;;;;;;;1.24;70.61;99622.22;5050939;28;20044;-63
2021/11/11 00:45:10;;;;;;;5.57;3.38;;;;;;;1.25;70.65;99630.88;5049669;28;20507;-61
2021/11/11 00:47:38;;;;;;;5.95;3.70;;;;;;;1.35;70.61;99634.06;5051279;28;20076;-61
2021/11/11 00:50:07;;;;;;;6.15;3.40;;;;;;;1.42;69.80;99632.41;5050842;28;20512;-61
2021/11/11 00:52:33;;;;;;;5.85;3.75;;;;;;;1.44;69.37;99624.38;5049984;28;20048;-63
2021/11/11 00:55:00;;;;;;;6.85;3.00;;;;;;;1.26;69.62;99625.47;5049866;28;20043;-63
2021/11/11 00:57:55;;;;;;;6.47;4.00;;;;;;;1.31;70.10;99631.00;5041940;28;20055;-62
2021/11/11 01:00:22;;;;;;;3.13;2.53;;;;;;;1.39;69.24;99617.09;5049386;28;20120;-62
2021/11/11 01:02:50;;;;;;;5.40;2.78;;;;;;;1.45;68.71;99620.81;5049586;28;20048;-62
2021/11/11 01:05:16;;;;;;;4.60;2.95;;;;;;;1.49;68.66;99620.28;5049143;28;20037;-63
2021/11/11 01:07:43;;;;;;;5.25;3.13;;;;;;;1.54;68.81;99606.72;5050774;28;20045;-65
2021/11/11 01:10:12;;;;;;;4.97;3.33;;;;;;;1.49;68.61;99604.59;5052832;28;20045;-63
2021/11/11 01:12:38;;;;;;;7.50;3.35;;;;;;;1.48;68.33;99595.16;5052921;28;20137;-63
2021/11/11 01:15:07;;;;;;;4.15;3.08;;;;;;;1.55;68.13;99606.53;5052612;28;20570;-61
2021/11/11 01:17:33;;;;;;;5.65;3.08;;;;;;;1.57;67.81;99604.56;5054269;28;20048;-62
2021/11/11 01:19:59;;;;;;;4.60;3.03;;;;;;;1.58;67.81;99600.94;5054479;28;20125;-62
2021/11/11 01:22:25;;;;;;;5.45;3.30;;;;;;;1.65;67.84;99602.88;5054066;28;20538;-60
2021/11/11 01:24:52;;;;;;;5.22;3.58;;;;;;;1.69;67.91;99601.53;5036358;28;20517;-62
2021/11/11 01:27:18;;;;;;;6.60;3.63;;;;;;;1.65;67.83;99592.41;5054476;28;20078;-61
2021/11/11 01:29:44;;;;;;;5.10;2.80;;;;;;;1.60;67.79;99598.19;5052857;28;20426;-63
2021/11/11 01:32:11;;;;;;;5.38;2.85;;;;;;;1.60;67.13;99595.56;5053029;28;20044;-61
2021/11/11 01:34:37;;;;;;;6.03;3.25;;;;;;;1.58;67.61;99584.47;5052890;28;20033;-61
2021/11/11 01:37:03;;;;;;;4.15;2.75;;;;;;;1.72;67.17;99572.44;5052615;28;20045;-62
2021/11/11 01:39:33;;;;;;;6.55;3.10;;;;;;;1.70;67.11;99571.81;5052895;28;20421;-63
2021/11/11 01:42:02;;;;;;;6.50;3.20;;;;;;;1.67;67.09;99566.94;5052610;28;20041;-63
2021/11/11 01:44:28;;;;;;;4.90;3.00;;;;;;;1.74;67.45;99566.06;5052634;28;20106;-63
2021/11/11 01:46:54;;;;;;;4.50;3.33;;;;;;;1.84;66.85;99573.66;5052713;28;20611;-63
2021/11/11 01:49:23;;;;;;;4.70;2.97;;;;;;;1.84;66.08;99565.00;5052481;28;20045;-62
2021/11/11 01:51:49;;;;;;;6.30;3.22;;;;;;;1.89;66.36;99566.09;5052325;28;20033;-62
2021/11/11 01:54:17;;;;;;;6.40;3.25;;;;;;;1.94;66.30;99566.41;5052420;28;20135;-62
2021/11/11 01:56:45;;;;;;;6.35;2.97;;;;;;;1.87;66.06;99551.59;5052229;28;20518;-62
2021/11/11 01:59:16;;;;;;;4.22;2.60;;;;;;;1.88;65.85;99559.22;5052574;28;20119;-62
2021/11/11 02:01:43;;;;;;;6.45;3.20;;;;;;;1.90;65.86;99559.06;5035544;28;20036;-63
2021/11/11 02:04:09;;;;;;;6.60;3.13;;;;;;;1.83;65.73;99560.78;5052584;28;20421;-62
2021/11/11 02:06:50;;;;;;;5.57;2.78;;;;;;;1.87;66.12;99551.59;5052311;28;20041;-61
2021/11/11 02:09:22;;;;;;;5.47;3.30;;;;;;;1.87;65.99;99539.31;5052191;28;20048;-63
2021/11/11 02:12:07;;;;;;;4.75;3.10;;;;;;;1.95;65.37;99528.78;5052040;28;20402;-63
2021/11/11 02:14:34;;;;;;;6.35;3.13;;;;;;;1.97;65.20;99523.38;5019146;28;20047;-64
2021/11/11 02:17:04;;;;;;;6.75;2.95;;;;;;;1.96;64.93;99513.91;5052142;28;20091;-62
2021/11/11 02:20:06;;;;;;;4.30;2.70;;;;;;;2.09;65.11;99534.22;5051908;28;20037;-62
2021/11/11 02:22:52;;;;;;;7.70;3.20;;;;;;;2.06;64.57;99527.56;5052888;28;20052;-62
2021/11/11 02:25:20;;;;;;;5.97;3.10;;;;;;;2.05;65.06;99531.13;5051597;28;20052;-63
2021/11/11 02:27:49;;;;;;;5.75;3.40;;;;;;;2.06;64.65;99522.31;5051886;28;20041;-63
2021/11/11 02:30:19;;;;;;;7.72;3.17;;;;;;;2.15;64.64;99523.06;5051502;28;20444;-62
2021/11/11 02:32:46;;;;;;;4.43;2.70;;;;;;;2.16;64.13;99516.81;5052091;28;20049;-63
2021/11/11 02:35:16;;;;;;;7.25;3.63;;;;;;;2.21;64.19;99511.88;5035374;28;20045;-62
2021/11/11 02:37:45;;;;;;;5.20;3.58;;;;;;;2.25;63.96;99510.50;5052088;28;20049;-61
2021/11/11 02:40:29;;;;;;;5.55;2.67;;;;;;;2.26;63.65;99517.34;5051456;28;20049;-62
2021/11/11 02:42:55;;;;;;;4.95;2.95;;;;;;;2.28;63.59;99507.53;5051471;28;20041;-63
2021/11/11 02:45:29;;;;;;;7.80;3.40;;;;;;;2.28;63.85;99500.50;5051331;28;20053;-62
2021/11/11 02:47:59;;;;;;;4.85;3.03;;;;;;;2.31;63.08;99498.53;5035727;28;20045;-62
2021/11/11 02:50:29;;;;;;;4.85;2.85;;;;;;;2.41;63.53;99504.28;5034880;28;20248;-63
2021/11/11 02:52:56;;;;;;;4.55;3.00;;;;;;;2.42;62.73;99487.59;5052889;28;20124;-64
2021/11/11 02:55:22;;;;;;;5.72;2.88;;;;;;;2.44;62.70;99501.28;5051122;28;20127;-63
2021/11/11 02:57:51;;;;;;;5.00;3.05;;;;;;;2.39;62.41;99487.97;5051271;28;20045;-63
2021/11/11 03:00:22;;;;;;;5.57;3.03;;;;;;;2.35;62.84;99482.25;5051155;28;20037;-62
2021/11/11 03:02:50;;;;;;;4.22;2.80;;;;;;;2.27;62.51;99480.56;5034471;28;20041;-63
2021/11/11 03:05:27;;;;;;;5.50;3.30;;;;;;;2.26;62.58;99475.50;5051001;28;20052;-62
2021/11/11 03:07:53;;;;;;;5.13;3.00;;;;;;;2.24;62.71;99474.91;5051203;28;20040;-62
2021/11/11 03:10:25;;;;;;;7.05;3.60;;;;;;;2.15;62.95;99473.38;5050653;28;20055;-63
2021/11/11 03:12:53;;;;;;;6.65;2.88;;;;;;;2.18;62.68;99462.53;5051062;28;20048;-62
2021/11/11 03:15:21;;;;;;;4.82;3.08;;;;;;;2.18;62.27;99462.53;5050713;28;20130;-62
2021/11/11 03:17:47;;;;;;;5.90;3.40;;;;;;;2.16;62.43;99464.53;5051266;28;20150;-63
2021/11/11 03:20:14;;;;;;;4.85;2.92;;;;;;;2.17;61.93;99445.22;5050576;28;20091;-63
2021/11/11 03:22:42;;;;;;;4.70;2.90;;;;;;;2.19;62.60;99440.63;5050502;28;20080;-62
2021/11/11 03:25:15;;;;;;;4.03;2.97;;;;;;;2.15;62.65;99439.38;5033669;28;20047;-63
2021/11/11 03:27:42;;;;;;;5.85;3.08;;;;;;;2.09;62.26;99432.22;5050627;28;20047;-62
2021/11/11 03:30:12;;;;;;;4.95;3.15;;;;;;;2.13;62.25;99429.06;5033447;28;20041;-65
2021/11/11 03:32:40;;;;;;;6.90;3.35;;;;;;;2.10;62.20;99429.44;5050176;28;20461;-63
2021/11/11 03:35:08;;;;;;;7.32;3.45;;;;;;;2.18;62.27;99418.09;5050561;28;20044;-63
2021/11/11 03:37:38;;;;;;;5.85;2.90;;;;;;;2.19;62.53;99422.31;5050521;28;20059;-62
2021/11/11 03:40:17;;;;;;;5.35;2.90;;;;;;;2.15;61.58;99408.00;5050209;28;20040;-61
2021/11/11 03:42:46;;;;;;;11.48;3.22;;;;;;;2.11;62.00;99397.06;5050386;28;20095;-62
2021/11/11 03:45:13;;;;;;;5.13;2.88;;;;;;;2.15;61.90;99408.00;5049386;28;20045;-62
2021/11/11 03:47:44;;;;;;;5.97;2.95;;;;;;;2.11;61.87;99396.25;5050308;28;20060;-62
2021/11/11 03:50:11;;;;;;;7.03;3.20;;;;;;;2.13;62.22;99389.84;5050201;28;20051;-62
2021/11/11 03:52:37;;;;;;;6.90;2.95;;;;;;;2.25;61.76;99382.34;5050339;28;20045;-64
2021/11/11 03:55:06;;;;;;;3.50;2.75;;;;;;;2.30;61.24;99393.09;5050169;28;20041;-61
2021/11/11 03:57:32;;;;;;;4.57;2.60;;;;;;;2.30;61.44;99397.50;5050371;28;20064;-62
2021/11/11 03:59:58;;;;;;;4.90;3.10;;;;;;;2.30;61.30;99389.66;5049810;28;20490;-63
2021/11/11 04:02:25;;;;;;;4.75;3.13;;;;;;;2.30;61.13;99392.28;5032760;28;20044;-62
2021/11/11 04:04:53;;;;;;;5.10;3.17;;;;;;;2.33;60.95;99391.91;5050317;28;20041;-62
2021/11/11 04:07:20;;;;;;;5.22;3.10;;;;;;;2.32;61.16;99385.03;5050055;28;20486;-64
2021/11/11 04:09:49;;;;;;;7.25;3.40;;;;;;;2.26;61.22;99369.09;5050000;28;20041;-62
2021/11/11 04:12:15;;;;;;;5.25;3.17;;;;;;;2.26;61.26;99389.19;5050064;28;20158;-63
2021/11/11 04:14:41;;;;;;;4.50;2.50;;;;;;;2.24;61.56;99389.38;5050223;28;20155;-63
2021/11/11 04:17:07;;;;;;;6.15;3.10;;;;;;;2.26;61.67;99376.13;5016736;28;20049;-63
2021/11/11 04:19:33;;;;;;;5.03;3.17;;;;;;;2.20;61.70;99377.66;5033379;28;20050;-63
2021/11/11 04:21:59;;;;;;;4.80;3.05;;;;;;;2.28;61.51;99374.13;5049838;28;20037;-63
2021/11/11 04:24:25;;;;;;;5.65;3.00;;;;;;;2.29;61.24;99391.44;5050902;28;20049;-62
2021/11/11 04:27:01;;;;;;;3.42;2.80;;;;;;;2.30;61.29;99372.16;5051390;28;20037;-62
2021/11/11 04:29:31;;;;;;;6.15;3.22;;;;;;;2.35;61.14;99382.84;5049766;28;20505;-62
2021/11/11 04:32:00;;;;;;;4.65;2.97;;;;;;;2.39;60.69;99376.28;5049597;28;20045;-63
2021/11/11 04:34:27;;;;;;;4.38;3.28;;;;;;;2.44;60.97;99366.09;5051090;28;20124;-62
2021/11/11 04:42:25;;;;;;;5.05;3.17;;;;;;;2.52;60.28;99359.09;5034572;28;20037;-63
2021/11/11 04:59:36;;;;;;;4.55;2.90;;;;;;;2.30;60.72;99329.50;5053547;28;20049;-65
2021/11/11 05:03:33;;;;;;;6.25;3.05;;;;;;;2.50;60.18;99322.66;5054499;28;20041;-64
2021/11/11 05:05:59;;;;;;;4.00;2.88;;;;;;;2.52;60.12;99335.53;5053194;28;20033;-65
2021/11/11 05:08:26;;;;;;;4.72;3.30;;;;;;;2.61;60.13;99332.59;5053204;28;20052;-64
2021/11/11 05:10:54;;;;;;;6.88;3.67;;;;;;;2.62;60.16;99341.28;5052727;28;20037;-64
2021/11/11 05:13:22;;;;;;;4.43;2.80;;;;;;;2.64;59.93;99334.06;5053013;28;20133;-62
2021/11/11 05:15:48;;;;;;;5.35;3.20;;;;;;;2.61;59.72;99329.19;5052794;28;20047;-65
2021/11/11 05:18:15;;;;;;;4.57;2.58;;;;;;;2.65;59.62;99330.44;5053247;28;20391;-64
2021/11/11 05:20:41;;;;;;;5.57;3.22;;;;;;;2.65;60.13;99327.84;5052683;28;20512;-64
2021/11/11 05:23:07;;;;;;;4.15;3.00;;;;;;;2.76;59.55;99323.88;5036154;28;20057;-64
2021/11/11 05:25:33;;;;;;;5.20;2.97;;;;;;;2.75;59.34;99327.50;5054009;28;20144;-63
2021/11/11 05:28:01;;;;;;;5.57;3.13;;;;;;;2.73;59.81;99333.72;5053116;28;20049;-64
2021/11/11 05:30:28;;;;;;;7.47;3.25;;;;;;;2.73;59.14;99336.34;5052115;28;20056;-64
2021/11/11 05:32:55;;;;;;;6.95;3.35;;;;;;;2.77;59.15;99342.03;5052494;28;20418;-65
2021/11/11 05:35:25;;;;;;;5.90;3.40;;;;;;;2.79;59.43;99339.22;5052464;28;20049;-63
2021/11/11 05:37:52;;;;;;;5.47;3.22;;;;;;;2.82;59.10;99326.56;5036038;28;20253;-64
2021/11/11 05:40:20;;;;;;;5.05;3.17;;;;;;;2.85;59.38;99330.59;5035469;28;20041;-66
2021/11/11 05:42:48;;;;;;;4.78;3.08;;;;;;;2.84;59.15;99340.28;5052519;28;20049;-64
2021/11/11 05:45:18;;;;;;;5.00;3.00;;;;;;;2.76;59.72;99332.53;5018810;28;20033;-63
2021/11/11 05:47:45;;;;;;;6.18;2.90;;;;;;;2.83;60.05;99312.50;5019729;28;20441;-62
2021/11/11 05:50:13;;;;;;;6.63;3.00;;;;;;;2.91;60.32;99327.22;5052294;28;20053;-61
2021/11/11 05:52:40;;;;;;;6.75;3.28;;;;;;;2.94;60.80;99332.94;5052667;28;20181;-61
2021/11/11 05:55:09;;;;;;;5.75;3.60;;;;;;;2.85;61.52;99334.03;5034811;28;20041;-62
2021/11/11 05:57:35;;;;;;;4.82;3.28;;;;;;;2.80;62.54;99335.63;5035768;28;20070;-61
2021/11/11 06:00:07;;;;;;;7.15;3.22;;;;;;;2.77;63.04;99339.41;5051573;28;20049;-62
2021/11/11 06:02:43;;;;;;;4.00;3.00;;;;;;;2.72;64.01;99332.13;5053502;28;20037;-62
2021/11/11 06:05:15;;;;;;;7.93;3.33;;;;;;;2.72;64.31;99331.31;5036134;28;20136;-64
2021/11/11 06:07:42;;;;;;;4.97;3.10;;;;;;;2.78;65.12;99332.38;5044035;28;20052;-66
2021/11/11 06:10:09;;;;;;;5.07;3.40;;;;;;;2.71;66.60;99324.47;5031924;28;20045;-66
2021/11/11 06:12:34;;;;;;;4.93;3.10;;;;;;;2.69;68.19;99323.84;5035231;28;20041;-66
2021/11/11 06:15:01;;;;;;;5.65;3.53;;;;;;;2.78;68.72;99322.69;5035178;28;20049;-64
2021/11/11 06:17:27;;;;;;;5.20;3.20;;;;;;;2.77;67.61;99323.72;5051317;28;20072;-66
2021/11/11 06:19:53;;;;;;;5.85;3.20;;;;;;;2.81;68.92;99319.72;5046964;28;20135;-67
2021/11/11 06:22:23;;;;;;;5.05;3.20;;;;;;;2.78;68.77;99319.28;5046964;28;20084;-65
2021/11/11 06:24:48;;;;;;;6.80;3.13;;;;;;;2.73;67.15;99323.25;5050775;28;20049;-62
2021/11/11 06:27:16;;;;;;;5.85;3.38;;;;;;;2.77;68.40;99330.75;5050909;28;20120;-65
2021/11/11 06:29:46;;;;;;;6.82;3.42;;;;;;;2.77;67.27;99328.94;5050350;28;20103;-64
2021/11/11 06:32:13;;;;;;;8.18;3.65;;;;;;;2.79;67.31;99333.97;5052321;28;20052;-65
2021/11/11 06:34:40;;;;;;;4.55;3.30;;;;;;;2.78;67.93;99329.75;5050293;28;20041;-70
2021/11/11 06:37:06;;;;;;;4.88;3.28;;;;;;;2.75;68.41;99323.09;5050413;28;20040;-66
2021/11/11 06:39:32;;;;;;;4.68;3.05;;;;;;;2.81;68.07;99332.00;5050473;28;20047;-62
2021/11/11 06:41:58;;;;;;;9.07;4.40;;;;;;;2.83;69.02;99337.84;5051656;28;20044;-65
2021/11/11 06:44:24;;;;;;;9.02;5.07;;;;;;;2.90;69.91;99330.84;5051270;28;20101;-65
2021/11/11 06:46:51;;;;;;;5.25;3.63;;;;;;;2.83;68.32;99317.72;5052342;28;20079;-62
2021/11/11 06:49:18;;;;;;;7.43;3.88;;;;;;;2.93;68.98;99322.63;5016725;28;20045;-62
2021/11/11 06:51:44;;;;;;;5.35;3.75;;;;;;;2.90;69.16;99313.34;5050955;28;20044;-62
2021/11/11 06:54:10;;;;;;;7.57;3.85;;;;;;;2.93;68.58;99317.38;5050511;28;20049;-64
2021/11/11 06:56:36;;;;;;;5.22;3.78;;;;;;;2.93;68.65;99302.47;5050492;28;20548;-63
2021/11/11 06:59:03;;;;;;;7.60;3.75;;;;;;;2.88;68.78;99306.66;5049885;28;20044;-64
2021/11/11 07:01:29;;;;;;;5.95;4.13;;;;;;;2.89;69.17;99311.72;5033331;28;20178;-62
2021/11/11 07:03:55;;;;;;;6.88;3.65;;;;;;;2.95;68.91;99308.34;5033086;28;20425;-63
2021/11/11 07:06:21;;;;;;;6.38;4.00;;;;;;;3.01;69.88;99293.69;5048230;28;20124;-62
2021/11/11 07:08:47;;;;;;;8.43;3.97;;;;;;;2.90;68.62;99297.63;5048230;28;20067;-62
2021/11/11 07:11:13;;;;;;;6.43;3.67;;;;;;;2.95;68.97;99295.25;5049661;28;20090;-63
2021/11/11 07:13:39;;;;;;;7.55;4.07;;;;;;;2.91;68.91;99296.66;5050467;28;20037;-63
2021/11/11 07:16:05;;;;;;;6.18;3.80;;;;;;;2.92;69.15;99279.94;5048016;28;20579;-64
2021/11/11 07:18:31;;;;;;;6.85;4.07;;;;;;;2.91;69.51;99288.78;5047237;28;20047;-62
2021/11/11 07:20:56;;;;;;;7.75;4.75;;;;;;;3.01;69.75;99290.25;5048528;28;20045;-62
2021/11/11 07:23:23;;;;;;;7.40;4.00;;;;;;;3.00;69.39;99284.22;5049947;28;20072;-63
2021/11/11 07:25:53;;;;;;;6.55;3.72;;;;;;;2.95;69.50;99282.16;5047381;28;20072;-63
2021/11/11 07:28:20;;;;;;;;;;;;;;;3.03;69.67;99278.59;5048955;28;20497;-63
2021/11/11 07:30:47;;;;;;;7.60;4.07;;;;;;;3.13;68.77;99276.44;5046436;28;20011;-62
2021/11/11 07:33:14;;;;;;;7.72;4.00;;;;;;;3.08;69.92;99276.19;5049882;28;20045;-64
2021/11/11 07:35:42;;;;;;;6.90;4.22;;;;;;;3.11;69.37;99288.91;5049686;28;20215;-62
2021/11/11 07:38:09;;;;;;;7.05;3.92;;;;;;;3.14;69.26;99282.47;5049052;28;20596;-64
2021/11/11 07:40:36;;;;;;;9.55;4.43;;;;;;;3.13;69.93;99281.69;5047582;28;20044;-63
2021/11/11 07:43:03;;;;;;;7.13;4.55;;;;;;;3.18;70.47;99279.31;5049511;28;20068;-62
2021/11/11 07:45:36;;;;;;;8.40;4.43;;;;;;;3.11;69.80;99281.06;5047415;28;20479;-63
2021/11/11 07:48:02;;;;;;;8.38;4.50;;;;;;;3.19;70.36;99282.72;5048167;28;20045;-63
2021/11/11 07:50:30;;;;;;;10.65;5.30;;;;;;;3.27;69.85;99290.44;5047521;28;20083;-63
2021/11/11 07:52:59;;;;;;;9.18;4.95;;;;;;;3.21;69.54;99285.97;5047192;28;20532;-64
2021/11/11 07:55:26;;;;;;;8.50;4.63;;;;;;;3.27;70.07;99292.25;5047830;28;20040;-63
2021/11/11 07:57:52;;;;;;;7.45;4.45;;;;;;;3.33;70.00;99294.09;5048115;28;20045;-64
2021/11/11 08:00:19;;;;;;;7.20;4.75;;;;;;;3.28;70.16;99291.25;5046972;28;20037;-63
2021/11/11 08:02:46;;;;;;;9.50;5.35;;;;;;;3.25;70.09;99294.25;5049564;28;20053;-63
2021/11/11 08:05:15;;;;;;;8.20;4.65;;;;;;;3.21;69.65;99285.97;5029982;28;20066;-63
2021/11/11 08:07:45;;;;;;;9.40;4.90;;;;;;;3.10;70.14;99279.44;5050977;28;20041;-63
2021/11/11 08:10:11;;;;;;;8.77;5.38;;;;;;;3.14;70.58;99279.88;5048565;28;20048;-65
2021/11/11 08:12:37;;;;;;;9.88;5.45;;;;;;;3.11;71.03;99277.63;5047803;28;20118;-64
2021/11/11 08:15:04;;;;;;;10.60;5.13;;;;;;;3.15;69.99;99292.78;5048596;28;20529;-68
2021/11/11 08:17:30;;;;;;;10.73;5.78;;;;;;;3.13;70.45;99286.13;5049702;28;20041;-63
2021/11/11 08:19:56;;;;;;;8.57;5.25;;;;;;;3.17;71.84;99295.19;5030262;28;20052;-62
2021/11/11 08:22:24;;;;;;;11.40;5.78;;;;;;;3.19;71.23;99280.91;5047342;28;20065;-64
2021/11/11 08:24:50;;;;;;;9.40;5.18;;;;;;;3.26;70.65;99293.25;5047383;28;20048;-65
2021/11/11 08:27:17;;;;;;;12.63;6.15;;;;;;;3.31;71.12;99294.28;5049116;28;20041;-66
2021/11/11 08:29:43;;;;;;;14.63;5.93;;;;;;;3.34;70.65;99291.28;5031241;28;20500;-66
2021/11/11 08:32:11;;;;;;;9.02;5.40;;;;;;;3.30;72.46;99284.81;5047320;28;20041;-61
2021/11/11 08:34:37;;;;;;;12.32;5.50;;;;;;;3.40;71.69;99293.13;5048135;28;20049;-62
2021/11/11 08:37:03;;;;;;;7.93;4.95;;;;;;;3.35;71.24;99302.56;5049334;28;20516;-64
2021/11/11 08:39:29;;;;;;;12.40;5.15;;;;;;;3.31;71.78;99303.97;5046802;28;20341;-63
2021/11/11 08:41:55;;;;;;;8.95;5.22;;;;;;;3.36;71.77;99305.00;5046506;28;20052;-63
2021/11/11 08:44:21;;;;;;;9.57;5.38;;;;;;;3.44;70.99;99306.66;5049338;28;20049;-63
2021/11/11 08:46:49;;;;;;;9.57;6.05;;;;;;;3.34;70.77;99301.75;5047591;28;20309;-64
2021/11/11 08:49:17;;;;;;;11.85;5.35;;;;;;;3.28;71.91;99296.50;5047543;28;20053;-61
2021/11/11 08:51:44;;;;;;;8.90;4.90;;;;;;;3.34;72.24;99293.91;5049499;28;20623;-63
2021/11/11 08:54:11;;;;;;;10.05;6.10;;;;;;;3.42;71.77;99292.94;5049724;28;20053;-63
2021/11/11 08:56:38;;;;;;;11.15;5.85;;;;;;;3.41;71.57;99289.53;5048864;28;20091;-64
2021/11/11 08:59:04;;;;;;;9.27;5.25;;;;;;;3.31;71.25;99288.25;5049980;28;20448;-63
2021/11/11 09:01:31;;;;;;;9.48;5.35;;;;;;;3.25;71.97;99287.19;5047900;28;20163;-64
2021/11/11 09:03:58;;;;;;;9.35;5.10;;;;;;;3.13;72.21;99291.34;5049039;28;20049;-64
2021/11/11 09:06:25;;;;;;;11.65;5.28;;;;;;;3.06;72.44;99288.69;5048824;28;20052;-63
2021/11/11 09:08:52;;;;;;;12.98;6.28;;;;;;;3.22;73.19;99290.19;5048567;28;20044;-63
2021/11/11 09:11:22;;;;;;;13.52;6.28;;;;;;;3.26;71.77;99283.56;5046874;28;20032;-64
2021/11/11 09:13:48;;;;;;;9.05;5.20;;;;;;;3.29;72.00;99290.22;5047819;28;20061;-63
2021/11/11 09:16:14;;;;;;;8.88;5.68;;;;;;;3.30;72.04;99284.00;5047421;28;20036;-61
2021/11/11 09:18:41;;;;;;;14.00;6.85;;;;;;;3.23;72.34;99286.56;5046938;28;20490;-61
2021/11/11 09:21:10;;;;;;;10.75;6.10;;;;;;;3.24;72.41;99274.31;5046425;28;20051;-72
2021/11/11 09:23:39;;;;;;;9.25;5.70;;;;;;;3.27;72.10;99268.69;5030922;28;20061;-71
2021/11/11 09:26:07;;;;;;;14.48;7.40;;;;;;;3.43;72.12;99273.59;4997633;28;20050;-76
2021/11/11 09:28:36;;;;;;;9.75;5.65;;;;;;;3.42;71.69;99269.38;5030540;28;20048;-68
2021/11/11 09:31:02;;;;;;;9.88;6.15;;;;;;;3.55;72.58;99266.78;5052348;28;20056;-69
2021/11/11 09:33:28;;;;;;;10.68;5.68;;;;;;;3.49;71.35;99264.16;5054648;28;20100;-68
2021/11/11 09:35:55;;;;;;;12.50;6.55;;;;;;;3.58;72.36;99265.59;5056682;28;20068;-68
2021/11/11 09:38:23;;;;;;;10.38;6.15;;;;;;;3.58;72.01;99257.72;5059723;28;20044;-69
2021/11/11 09:40:49;;;;;;;12.50;6.70;;;;;;;3.58;72.73;99257.72;5043939;28;20033;-68
2021/11/11 09:43:15;;;;;;;9.02;5.80;;;;;;;3.60;71.45;99255.75;5050441;28;20140;-71
2021/11/11 09:45:42;;;;;;;10.60;6.25;;;;;;;3.63;72.40;99266.63;5047150;28;20494;-70
2021/11/11 09:48:09;;;;;;;11.25;5.93;;;;;;;3.60;71.39;99258.34;5049279;28;20049;-69
2021/11/11 09:50:35;;;;;;;9.95;5.85;;;;;;;3.62;71.65;99264.22;5049628;28;20041;-67
2021/11/11 09:53:08;;;;;;;11.75;6.28;;;;;;;3.56;71.03;99259.72;5050709;28;20037;-66
2021/11/11 09:58:35;;;;;;;14.13;6.18;;;;;;;3.57;71.93;99250.88;5051189;28;20064;-67
2021/11/11 10:01:03;;;;;;;11.98;6.13;;;;;;;3.51;71.83;99249.06;5049831;28;20041;-69
2021/11/11 10:03:30;;;;;;;10.60;5.97;;;;;;;3.47;71.36;99235.53;5048921;28;20048;-69
2021/11/11 10:05:56;;;;;;;11.07;6.43;;;;;;;3.64;70.87;99249.09;5033852;28;20099;-68
2021/11/11 10:08:52;;;;;;;9.95;5.53;;;;;;;3.60;71.04;99253.13;5049202;28;20041;-68
2021/11/11 10:11:36;;;;;;;12.02;6.72;;;;;;;3.69;71.45;99241.47;5051755;28;20056;-69
2021/11/11 10:14:05;;;;;;;8.55;5.75;;;;;;;3.69;70.97;99236.22;5050034;28;20106;-67
2021/11/11 10:16:45;;;;;;;12.35;6.30;;;;;;;3.62;71.51;99256.34;5048487;28;20553;-70
2021/11/11 10:19:11;;;;;;;9.88;5.78;;;;;;;3.64;70.42;99264.81;5047686;28;20079;-70
2021/11/11 10:21:48;;;;;;;9.95;5.90;;;;;;;3.71;70.99;99267.50;5027164;28;20053;-70
2021/11/11 10:24:30;;;;;;;12.48;7.18;;;;;;;3.60;71.21;99260.97;5028586;28;20064;-71
2021/11/11 10:27:02;;;;;;;11.63;6.35;;;;;;;3.61;71.91;99259.97;5046509;28;20508;-70
2021/11/11 10:29:36;;;;;;;10.82;6.28;;;;;;;3.62;71.62;99254.53;5047290;28;20214;-70
2021/11/11 10:32:17;;;;;;;10.68;6.97;;;;;;;3.59;71.72;99254.13;5048653;28;20076;-71
2021/11/11 10:34:55;;;;;;;10.13;5.68;;;;;;;3.57;71.30;99266.63;5048189;28;20041;-70
2021/11/11 10:37:25;;;;;;;11.40;6.80;;;;;;;3.51;71.89;99254.28;5050886;28;20087;-69
2021/11/11 10:40:11;;;;;;;10.40;6.82;;;;;;;3.40;71.75;99266.94;5048909;28;20041;-68
2021/11/11 10:42:39;;;;;;;8.68;6.15;;;;;;;3.41;72.19;99275.59;5051423;28;20060;-69
2021/11/11 10:45:11;;;;;;;10.52;6.88;;;;;;;3.44;71.70;99279.63;5049411;28;20090;-70
2021/11/11 10:47:38;;;;;;;11.45;6.22;;;;;;;3.47;71.98;99284.50;5047537;28;20159;-69
2021/11/11 10:50:08;;;;;;;11.13;6.15;;;;;;;3.44;71.49;99275.19;5049678;28;20156;-71
2021/11/11 10:52:39;;;;;;;;;;;;;;;3.45;71.72;99273.41;5011410;28;20137;-71
2021/11/11 10:55:12;;;;;;;;;;;;;;;3.41;71.51;99273.81;5010491;28;19927;-69
2021/11/11 10:57:45;;;;;;;13.70;6.03;;;;;;;3.35;72.37;99278.97;5047936;28;20015;-70
2021/11/11 11:00:16;;;;;;;15.15;6.88;;;;;;;3.40;72.73;99276.59;5047000;28;20075;-69
2021/11/11 11:02:49;;;;;;;11.15;6.55;;;;;;;3.43;72.58;99278.84;5030867;28;20422;-69
2021/11/11 11:05:15;;;;;;;11.55;6.55;;;;;;;3.46;72.86;99265.34;5047554;28;20037;-69
2021/11/11 11:07:41;;;;;;;13.20;6.80;;;;;;;3.46;73.51;99285.50;5048782;28;20044;-69
2021/11/11 11:10:08;;;;;;;12.80;6.95;;;;;;;3.45;73.11;99263.72;5047685;28;20048;-70
2021/11/11 11:12:34;;;;;;;15.40;7.63;;;;;;;3.47;73.30;99279.25;5048903;28;20143;-70
2021/11/11 11:15:00;;;;;;;12.27;7.38;;;;;;;3.50;73.32;99278.88;5048208;28;20083;-69
2021/11/11 11:17:26;;;;;;;13.93;7.47;;;;;;;3.53;73.41;99281.94;5049578;28;20079;-70
2021/11/11 11:20:19;;;;;;;11.38;6.97;;;;;;;3.49;73.83;99280.69;5047357;28;20560;-68
2021/11/11 11:22:46;;;;;;;10.57;6.75;;;;;;;3.45;73.86;99270.78;5027768;28;20061;-65
2021/11/11 11:25:12;;;;;;;11.65;6.80;;;;;;;3.46;73.81;99275.03;5012736;28;20068;-64
2021/11/11 11:27:37;;;;;;;12.70;7.18;;;;;;;3.54;73.95;99282.72;5031672;28;20076;-65
2021/11/11 11:30:16;;;;;;;11.10;6.68;;;;;;;3.49;73.47;99269.38;5046641;28;20413;-66
2021/11/11 11:32:48;;;;;;;11.50;6.68;;;;;;;3.50;73.18;99268.38;5048151;28;20114;-65
2021/11/11 11:35:16;;;;;;;13.55;7.03;;;;;;;3.52;73.31;99261.13;5047135;28;20414;-64
2021/11/11 11:37:41;;;;;;;13.80;7.55;;;;;;;3.52;73.22;99263.75;5047295;28;20037;-66
2021/11/11 11:40:14;;;;;;;12.23;7.18;;;;;;;3.46;73.37;99267.16;5047008;28;20045;-65
2021/11/11 11:42:43;;;;;;;11.52;7.13;;;;;;;3.41;73.54;99263.31;5047555;28;20037;-65
2021/11/11 11:45:12;;;;;;;12.02;7.18;;;;;;;3.42;73.43;99256.25;5050022;28;20041;-74
2021/11/11 11:47:50;;;;;;;14.57;7.40;;;;;;;3.39;73.07;99260.06;5048687;28;20504;-74
2021/11/11 11:50:22;;;;;;;13.60;7.28;;;;;;;3.37;73.17;99240.31;5047854;28;20048;-74
2021/11/11 11:52:54;;;;;;;15.43;7.90;;;;;;;3.38;73.76;99236.69;5045328;28;20049;-68
2021/11/11 11:58:02;;;;;;;14.05;8.02;;;;;;;3.34;73.33;99211.88;5046924;28;20073;-64
2021/11/11 12:03:35;;;;;;;16.85;8.13;;;;;;;3.28;73.86;99237.03;5047105;28;20044;-62
2021/11/11 12:09:10;;;;;;;15.50;7.60;;;;;;;3.42;73.42;99225.63;5046116;28;20051;-65
2021/11/11 12:14:22;;;;;;;13.05;7.60;;;;;;;3.41;73.78;99231.88;5029772;28;20543;-66
2021/11/11 12:39:46;;;;;;;14.30;8.48;;;;;;;3.60;73.95;99274.88;5046531;28;20045;-63
2021/11/11 12:42:32;;;;;;;16.33;8.05;;;;;;;3.66;73.42;99262.81;5047484;28;20044;-63
2021/11/11 12:45:13;;;;;;;17.40;8.77;;;;;;;3.64;72.98;99272.69;5046516;28;20045;-62
2021/11/11 12:47:45;;;;;;;16.60;8.75;;;;;;;3.65;73.38;99263.84;5050555;28;20045;-63